Largo — PFNC — position and weather

sailwx.info

Track history (hours):
 
Tides and Currents Weather Stations Pressure Air Temp Water Temp Dewpoint Dewpoint Depression Visibility Wind Speed Wind Dir Waves Ship Positions

Largo

Last reported at 2014-Aug-28 05:33 UTC. Time now 2014-Aug-28 11:29 UTC.
Position N 38°46' E 000°43'.

Length 91 m; draft 4.7 m.

Type: Cargo ship. MMSI: 245645000.

Date/timePositionNaut miles runAvg speedWind from/ knotsBaromVisibWave heightAir tempDewpointWater temp
2014-Aug-28 05:33N 38°46' E 000°43'1211.8
2014-Aug-28 04:33N 38°41' E 000°58'1711.7
2014-Aug-28 03:05N 38°36' E 001°19'611.9
2014-Aug-28 02:33N 38°33' E 001°26'1411.8
2014-Aug-28 01:22N 38°26' E 001°41'2612.0
2014-Aug-27 23:13N 38°12' E 002°09'812.1
2014-Aug-27 22:33N 38°08' E 002°18'1511.9
2014-Aug-27 21:18N 38°00' E 002°34'912.0
2014-Aug-27 20:33N 37°56' E 002°44'1212.0
2014-Aug-27 19:33N 37°50' E 002°57'1211.8
2014-Aug-27 18:33N 37°44' E 003°10'1111.4
2014-Aug-27 17:33N 37°38' E 003°22'1111.4
2014-Aug-27 16:33N 37°32' E 003°35'1111.4
2014-Aug-27 15:33N 37°26' E 003°47'1211.5
2014-Aug-27 14:32N 37°20' E 003°60'1312.2
2014-Aug-27 13:27N 37°13' E 004°14'1011.7
2014-Aug-27 12:33N 37°08' E 004°25'1611.7
2014-Aug-27 11:13N 36°60' E 004°42'1112.1
2014-Aug-27 10:17N 36°54' E 004°54'811.3
2014-Aug-27 09:33N 36°49' E 005°03'  
Track history (hours):
 
Tides and Currents Weather Stations Pressure Air Temp Water Temp Dewpoint Dewpoint Depression Visibility Wind Speed Wind Dir Waves Ship Positions

Largo

Last reported at 2014-Aug-28 05:33 UTC. Time now 2014-Aug-28 11:29 UTC.
Position N 38°46' E 000°43'.

Length 91 m; draft 4.7 m.

Type: Cargo ship. MMSI: 245645000.

Date/timePositionNaut miles runAvg speedWind from/ knotsBaromVisibWave heightAir tempDewpointWater temp
2014-Aug-28 05:33N 38°46' E 000°43'1211.8
2014-Aug-28 04:33N 38°41' E 000°58'1711.7
2014-Aug-28 03:05N 38°36' E 001°19'611.9
2014-Aug-28 02:33N 38°33' E 001°26'1411.8
2014-Aug-28 01:22N 38°26' E 001°41'2612.0
2014-Aug-27 23:13N 38°12' E 002°09'812.1
2014-Aug-27 22:33N 38°08' E 002°18'1511.9
2014-Aug-27 21:18N 38°00' E 002°34'912.0
2014-Aug-27 20:33N 37°56' E 002°44'1212.0
2014-Aug-27 19:33N 37°50' E 002°57'1211.8
2014-Aug-27 18:33N 37°44' E 003°10'1111.4
2014-Aug-27 17:33N 37°38' E 003°22'1111.4
2014-Aug-27 16:33N 37°32' E 003°35'1111.4
2014-Aug-27 15:33N 37°26' E 003°47'1211.5
2014-Aug-27 14:32N 37°20' E 003°60'1312.2
2014-Aug-27 13:27N 37°13' E 004°14'1011.7
2014-Aug-27 12:33N 37°08' E 004°25'1611.7
2014-Aug-27 11:13N 36°60' E 004°42'1112.1
2014-Aug-27 10:17N 36°54' E 004°54'811.3
2014-Aug-27 09:33N 36°49' E 005°03'  

Dump ship's entire track history